• Join FlightAware (Why Join?)
  • Login
  • US Flag 
01:49AM EDT


 

Airport Tracker/Info


-or-


 

Live Flight TrackerFlight Track Log ✈ IGO482 ✈ 24-Apr-2013 ✈ VOBL / BLR - VABB / BOM

Flight Track Log - Related Links

Times and Time Zones

All times are in EDT time to prevent confusion due to time zone crossing. See the IGO482 flight status page for this flight to view local times or setup timezone preferences in your user account.

Time Position Orientation Groundspeed Altitude Reporting Facility
EDT Latitude Longitude Course Direction KTS MPH feet Rate Location/Type
08:59PM 14.2640 77.1200 325° Northwest 421 484 26,300  Level FlightAware
09:00PM 14.3150 77.0830 325° Northwest 421 484 26,300 1,200 Level FlightAware
09:01PM 14.4630 76.9810 326° Northwest 433 498 28,800 1,440 Climbing FlightAware
09:02PM 14.5530 76.9190 326° Northwest 436 502 29,700 540 Climbing FlightAware
09:03PM 14.6200 76.8700 325° Northwest 436 502 29,700 1,020 Level FlightAware
09:04PM 14.6860 76.8260 327° Northwest 441 507 31,100 1,020 Climbing FlightAware
09:04PM 14.7550 76.7760 325° Northwest 441 507 31,100  Level FlightAware
09:05PM 14.8260 76.7240 325° Northwest 441 507 31,100  Level FlightAware
09:06PM 14.8830 76.6830 325° Northwest 441 507 31,100 2,280 Level FlightAware
09:07PM 14.9860 76.6160 328° Northwest 443 510 34,200 2,160 Climbing FlightAware
09:07PM 15.0540 76.5660 325° Northwest 443 510 34,200 420 Level FlightAware
09:08PM 15.1300 76.5130 326° Northwest 443 510 34,800 1,320 Climbing FlightAware
09:09PM 15.1970 76.4670 326° Northwest 439 505 36,000 840 Climbing FlightAware
09:09PM 15.2670 76.4160 325° Northwest 439 505 36,000  Level FlightAware
09:10PM 15.3230 76.3750 325° Northwest 439 505 36,000  Level FlightAware
09:11PM 15.3800 76.3340 325° Northwest 439 505 36,000  Level FlightAware
09:11PM 15.4360 76.2930 325° Northwest 439 505 36,000  Level FlightAware
09:12PM 15.5070 76.2420 325° Northwest 439 505 36,000  Level FlightAware
09:13PM 15.6270 76.1630 328° Northwest 438 504 36,000  Level FlightAware
09:14PM 15.7070 76.1070 326° Northwest 440 506 36,000  Level FlightAware
09:14PM 15.7730 76.0600 326° Northwest 440 506 36,000  Level FlightAware
09:15PM 15.8380 76.0150 326° Northwest 440 506 36,000  Level FlightAware
09:16PM 15.9030 75.9680 325° Northwest 438 504 36,000  Level FlightAware
09:17PM 16.0110 75.8920 326° Northwest 435 501 36,000  Level FlightAware
09:17PM 16.0630 75.8540 325° Northwest 435 501 36,000  Level FlightAware
09:18PM 16.1330 75.8030 325° Northwest 435 501 36,000  Level FlightAware
09:19PM 16.1890 75.7620 325° Northwest 435 501 36,000  Level FlightAware
09:19PM 16.2450 75.7210 325° Northwest 435 501 36,000  Level FlightAware
09:20PM 16.3010 75.6800 325° Northwest 435 501 36,000 60 Level FlightAware
09:21PM 16.4450 75.5820 327° Northwest 440 506 36,100 60 Climbing FlightAware
09:22PM 16.5240 75.5250 325° Northwest 437 503 36,100 -120 Level FlightAware
09:22PM 16.5780 75.4840 324° Northwest 434 499 36,000 -120 Descending FlightAware
09:23PM 16.6450 75.4170 316° Northwest 428 493 36,000  Level FlightAware
09:24PM 16.7250 75.3270 313° West 428 493 36,000  Level FlightAware
09:25PM 16.7740 75.2740 314° West 427 491 36,000  Level FlightAware
09:25PM 16.8200 75.2230 313° West 427 491 36,000  Level FlightAware
09:26PM 16.8770 75.1590 313° West 427 491 36,000  Level FlightAware
09:27PM 16.9230 75.1070 313° West 427 491 36,000  Level FlightAware
09:28PM 16.9690 75.0560 313° West 427 491 36,000  Level FlightAware
09:28PM 17.0140 75.0050 313° West 427 491 36,000  Level FlightAware
09:29PM 17.0600 74.9530 313° West 427 491 36,000  Level FlightAware
09:30PM 17.1180 74.8890 313° West 427 491 36,000  Level FlightAware
09:30PM 17.2470 74.7520 315° West 420 483 36,000  Level FlightAware
09:31PM 17.3060 74.6870 314° West 422 486 36,000  Level FlightAware
09:32PM 17.3620 74.6250 313° West 423 487 36,000  Level FlightAware
09:33PM 17.4220 74.5580 313° West 425 489 36,000 -300 Level FlightAware
09:33PM 17.4760 74.4980 313° West 423 487 35,600 -780 Descending FlightAware
09:34PM 17.5300 74.4380 313° West 431 496 35,000 -1,020 Descending FlightAware
09:35PM 17.5910 74.3700 313° West 432 497 34,200 -1,200 Descending FlightAware
09:35PM 17.6480 74.3070 314° West 428 493 33,300 -1,560 Descending FlightAware
09:36PM 17.7060 74.2410 313° West 414 476 32,000 -1,800 Descending FlightAware
09:37PM 17.7590 74.1830 314° West 404 465 30,800 -1,980 Descending FlightAware
09:37PM 17.8090 74.1260 313° West 397 457 29,400 -2,340 Descending FlightAware
09:38PM 17.8670 74.0610 313° West 401 461 27,500 -2,280 Descending FlightAware
09:39PM 17.9180 74.0040 313° West 394 453 26,200 -1,920 Descending FlightAware
09:40PM 17.9720 73.9430 313° West 387 445 24,800 -1,800 Descending FlightAware
09:40PM 18.0210 73.8880 313° West 376 433 23,700 -1,920 Descending FlightAware
09:41PM 18.0680 73.8350 313° West 375 432 22,300 -1,980 Descending FlightAware
09:42PM 18.1220 73.7750 313° West 366 421 20,900 -1,860 Descending FlightAware
09:42PM 18.1690 73.7220 313° West 360 414 19,700 -1,680 Descending FlightAware
09:43PM 18.2120 73.6740 313° West 350 403 18,700 -1,680 Descending FlightAware
09:44PM 18.2610 73.6180 313° West 341 392 17,400 -1,740 Descending FlightAware
09:44PM 18.3040 73.5690 313° West 331 381 16,300 -1,800 Descending FlightAware
09:45PM 18.3520 73.5160 314° West 326 375 14,900 -1,980 Descending FlightAware
09:46PM 18.3920 73.4700 313° West 331 381 13,500 -2,040 Descending FlightAware
09:46PM 18.4360 73.4200 313° West 331 381 12,200 -1,920 Descending FlightAware
09:47PM 18.4880 73.3810 325° Northwest 338 389 10,800 -1,440 Descending FlightAware
09:48PM 18.5470 73.3510 334° Northwest 315 362 10,200 -960 Descending FlightAware
09:48PM 18.5850 73.3310 333° Northwest 305 351 9,700 -900 Descending FlightAware
09:49PM 18.6120 73.3170 334° Northwest 294 338 9,400 -660 Descending FlightAware
09:49PM 18.6520 73.2960 334° Northwest 273 314 9,100 -480 Descending FlightAware
09:50PM 18.6720 73.2850 332° Northwest 265 305 9,000 -120 Descending FlightAware
09:50PM 18.7070 73.2670 334° Northwest 264 304 9,000  Level FlightAware
09:51PM 18.7350 73.2520 333° Northwest 264 304 9,000  Level FlightAware
09:51PM 18.7530 73.2420 332° Northwest 264 304 9,000  Level FlightAware
09:52PM 18.7810 73.2270 333° Northwest 264 304 9,000  Level FlightAware
09:54PM 18.9641 73.0136 312° West  Level Estimated
09:55PM 19.0571 72.9049 312° West  Level Estimated
09:56PM 19.0887 72.8679 312° West  Level Estimated
09:57PM 19.0887 72.8679 193° South  Level Estimated
09:58PM 19.0887 72.8679 193° South  Level Estimated
09:59PM 19.0887 72.8679 193° South  Level Estimated
10:00PM 19.0887 72.8679 193° South  Level Estimated
10:01PM 19.0887 72.8679 193° South  Level Estimated
10:02PM 19.0887 72.8679 193° South  Level Estimated
10:03PM 19.0887 72.8679 193° South  Level Estimated
10:04PM 19.0887 72.8679 193° South  Level Estimated
10:05PM 19.0887 72.8679 193° South  Level Estimated
10:06PM 19.0887 72.8679 193° South  Level Estimated
10:07PM 19.0887 72.8679 193° South  Level Estimated
10:08PM 19.0887 72.8679 193° South  Level Estimated
10:09PM 19.0887 72.8679 193° South  Level Estimated
10:10PM 19.0887 72.8679 193° South  Level Estimated